Time;durP1;ratioP1;P1;durP2;ratioP2;P2;SDS_P1;SDS_P2;PMS_P1;PMS_P2;Temp;Humidity;BMP_temperature;BMP_pressure;BME280_temperature;BME280_humidity;BME280_pressure;Samples;Min_cycle;Max_cycle;Signal;HPM_P1;HPM_P2
2023/04/27 00:02:19;;;;;;;;;;;6.20;69.20;;;;;;5072441;28;20016;-29
2023/04/27 00:04:44;;;;;;;;;;;6.20;69.20;;;;;;5072358;28;19912;-29
2023/04/27 00:07:10;;;;;;;;;;;6.10;69.20;;;;;;5073594;28;19913;-28
2023/04/27 00:09:35;;;;;;;;;;;6.20;69.30;;;;;;5073547;28;19915;-30
2023/04/27 00:12:01;;;;;;;;;;;6.10;69.30;;;;;;5072145;28;19915;-31
2023/04/27 00:14:27;;;;;;;;;;;6.10;69.40;;;;;;5073452;28;20275;-31
2023/04/27 00:16:53;;;;;;;;;;;6.10;69.40;;;;;;5073462;28;19909;-29
2023/04/27 00:19:19;;;;;;;;;;;6.10;69.50;;;;;;5072100;28;20004;-30
2023/04/27 00:21:45;;;;;;;;;;;6.10;69.50;;;;;;5073280;28;19908;-29
2023/04/27 00:24:10;;;;;;;;;;;6.10;69.60;;;;;;5073323;28;20049;-29
2023/04/27 00:26:36;;;;;;;;;;;6.00;69.60;;;;;;5073324;28;19999;-28
2023/04/27 00:29:01;;;;;;;;;;;6.00;69.70;;;;;;5073420;28;19909;-29
2023/04/27 00:31:27;;;;;;;;;;;6.00;69.70;;;;;;5073249;28;19909;-29
2023/04/27 00:33:52;;;;;;;;;;;5.90;69.70;;;;;;5072064;28;19912;-28
2023/04/27 00:36:18;;;;;;;;;;;6.00;69.80;;;;;;5073379;28;19916;-29
2023/04/27 00:38:43;;;;;;;;;;;5.90;69.70;;;;;;5073356;28;19948;-28
2023/04/27 00:41:09;;;;;;;;;;;5.90;69.70;;;;;;5073059;28;19929;-29
2023/04/27 00:43:52;;;;;;;;;;;5.90;69.80;;;;;;5072919;28;20284;-29
2023/04/27 00:46:18;;;;;;;;;;;5.90;69.90;;;;;;5072927;28;19909;-29
2023/04/27 00:48:44;;;;;;;;;;;5.90;69.90;;;;;;5072744;28;20383;-29
2023/04/27 00:51:10;;;;;;;;;;;5.90;70.50;;;;;;5071476;28;19919;-29
2023/04/27 00:53:36;;;;;;;;;;;5.80;69.90;;;;;;5072767;28;20007;-30
2023/04/27 00:56:02;;;;;;;;;;;5.90;70.00;;;;;;5072724;28;19978;-30
2023/04/27 00:58:27;;;;;;;;;;;5.80;70.00;;;;;;5072699;28;19923;-34
2023/04/27 01:00:53;;;;;;;;;;;5.80;70.10;;;;;;5072562;28;19912;-29
2023/04/27 01:03:18;;;;;;;;;;;5.80;70.10;;;;;;5072541;28;20360;-28
2023/04/27 01:05:44;;;;;;;;;;;5.80;70.20;;;;;;5072510;28;20004;-31
2023/04/27 01:08:09;;;;;;;;;;;5.80;70.30;;;;;;5072502;28;20358;-29
2023/04/27 01:10:36;;;;;;;;;;;5.70;70.30;;;;;;5070912;28;19908;-29
2023/04/27 01:13:02;;;;;;;;;;;5.80;70.30;;;;;;5072397;28;19909;-30
2023/04/27 01:15:27;;;;;;;;;;;5.80;70.30;;;;;;5072459;28;20057;-29
2023/04/27 01:17:56;;;;;;;;;;;5.80;70.30;;;;;;5072430;28;19915;-34
2023/04/27 01:20:22;;;;;;;;;;;5.70;70.30;;;;;;5070958;28;19914;-29
2023/04/27 01:22:47;;;;;;;;;;;5.70;70.40;;;;;;5072045;28;19932;-28
2023/04/27 01:25:13;;;;;;;;;;;5.70;70.50;;;;;;5071982;28;20269;-30
2023/04/27 01:27:38;;;;;;;;;;;5.60;70.50;;;;;;5071987;28;19908;-28
2023/04/27 01:30:05;;;;;;;;;;;5.60;70.70;;;;;;5071973;28;19908;-29
2023/04/27 01:32:30;;;;;;;;;;;5.60;70.80;;;;;;5071972;28;19912;-29
2023/04/27 01:34:56;;;;;;;;;;;5.60;70.80;;;;;;5071988;28;19909;-29
2023/04/27 01:37:21;;;;;;;;;;;5.50;70.90;;;;;;5071971;28;19909;-31
2023/04/27 01:39:47;;;;;;;;;;;5.50;70.90;;;;;;5071952;28;19999;-32
2023/04/27 01:42:12;;;;;;;;;;;5.40;70.90;;;;;;5071884;28;19908;-31
2023/04/27 01:44:38;;;;;;;;;;;5.50;71.00;;;;;;5071385;28;20375;-28
2023/04/27 01:47:03;;;;;;;;;;;5.50;71.00;;;;;;5071860;28;19931;-29
2023/04/27 01:49:29;;;;;;;;;;;5.50;71.10;;;;;;5071765;28;20284;-28
2023/04/27 01:51:55;;;;;;;;;;;5.50;71.10;;;;;;5072044;28;19916;-28
2023/04/27 01:54:20;;;;;;;;;;;5.50;71.10;;;;;;5071843;28;20372;-29
2023/04/27 01:56:46;;;;;;;;;;;5.50;71.10;;;;;;5071670;28;19909;-29
2023/04/27 01:59:11;;;;;;;;;;;5.40;71.10;;;;;;5071666;28;20304;-27
2023/04/27 02:01:37;;;;;;;;;;;5.50;71.20;;;;;;5071650;28;19915;-28
2023/04/27 02:04:03;;;;;;;;;;;5.40;71.10;;;;;;5071676;28;19912;-28
2023/04/27 02:06:28;;;;;;;;;;;5.40;71.20;;;;;;5071885;28;20336;-28
2023/04/27 02:08:54;;;;;;;;;;;5.40;71.20;;;;;;5071556;28;20372;-29
2023/04/27 02:11:19;;;;;;;;;;;5.40;71.30;;;;;;5071689;28;19944;-30
2023/04/27 02:13:45;;;;;;;;;;;5.40;71.40;;;;;;5071490;28;20279;-30
2023/04/27 02:16:10;;;;;;;;;;;5.40;71.40;;;;;;5071569;28;19908;-29
2023/04/27 02:18:37;;;;;;;;;;;5.40;71.50;;;;;;5071511;28;19916;-27
2023/04/27 02:21:07;;;;;;;;;;;5.30;71.50;;;;;;5071548;28;19909;-28
2023/04/27 02:23:33;;;;;;;;;;;5.30;71.60;;;;;;5071069;28;19928;-29
2023/04/27 02:25:59;;;;;;;;;;;5.30;71.70;;;;;;5071393;28;20398;-29
2023/04/27 02:28:24;;;;;;;;;;;5.30;71.80;;;;;;5071305;28;19912;-29
2023/04/27 02:30:49;;;;;;;;;;;5.30;71.80;;;;;;5071465;28;19916;-30
2023/04/27 02:33:16;;;;;;;;;;;5.20;71.80;;;;;;5071406;28;19966;-30
2023/04/27 02:35:41;;;;;;;;;;;5.20;71.80;;;;;;5071677;28;20371;-29
2023/04/27 02:38:06;;;;;;;;;;;5.20;71.90;;;;;;5071244;28;19919;-31
2023/04/27 02:40:32;;;;;;;;;;;5.20;72.00;;;;;;5071455;28;20416;-30
2023/04/27 02:42:57;;;;;;;;;;;5.10;72.00;;;;;;5071557;28;19913;-32
2023/04/27 02:45:23;;;;;;;;;;;5.10;72.10;;;;;;5071532;28;19916;-31
2023/04/27 02:47:49;;;;;;;;;;;5.10;72.10;;;;;;5071444;28;19913;-31
2023/04/27 02:50:15;;;;;;;;;;;5.10;72.20;;;;;;5071263;28;19919;-32
2023/04/27 02:52:40;;;;;;;;;;;5.00;72.20;;;;;;5071353;28;19912;-29
2023/04/27 02:55:06;;;;;;;;;;;5.00;72.20;;;;;;5071665;28;19916;-30
2023/04/27 02:57:31;;;;;;;;;;;5.00;72.20;;;;;;5073243;28;19986;-30
2023/04/27 02:59:57;;;;;;;;;;;5.00;72.20;;;;;;5075409;28;19920;-32
2023/04/27 03:02:22;;;;;;;;;;;5.00;72.30;;;;;;5075104;28;19944;-34
2023/04/27 03:04:52;;;;;;;;;;;5.00;72.40;;;;;;5074896;28;19966;-32
2023/04/27 03:07:17;;;;;;;;;;;4.90;72.30;;;;;;5074882;28;19913;-29
2023/04/27 03:09:43;;;;;;;;;;;4.90;72.40;;;;;;5074618;28;20283;-31
2023/04/27 03:12:08;;;;;;;;;;;4.90;72.40;;;;;;5074585;28;20057;-30
2023/04/27 03:14:34;;;;;;;;;;;4.90;72.40;;;;;;5074605;28;20010;-30
2023/04/27 03:16:59;;;;;;;;;;;4.90;72.50;;;;;;5074797;28;20432;-30
2023/04/27 03:19:25;;;;;;;;;;;4.90;72.60;;;;;;5074695;28;19912;-30
2023/04/27 03:21:50;;;;;;;;;;;4.90;72.60;;;;;;5073360;28;19913;-29
2023/04/27 03:24:16;;;;;;;;;;;4.90;72.60;;;;;;5074529;28;20295;-30
2023/04/27 03:26:41;;;;;;;;;;;4.90;72.70;;;;;;5074642;28;19919;-33
2023/04/27 03:29:07;;;;;;;;;;;4.90;72.60;;;;;;5074504;28;20026;-29
2023/04/27 03:31:32;;;;;;;;;;;4.90;73.30;;;;;;5074441;28;19913;-31
2023/04/27 03:33:58;;;;;;;;;;;4.90;72.70;;;;;;5074660;28;20372;-29
2023/04/27 03:36:23;;;;;;;;;;;4.90;72.70;;;;;;5074447;28;20011;-29
2023/04/27 03:38:49;;;;;;;;;;;4.90;72.70;;;;;;5074375;28;20275;-29
2023/04/27 03:41:14;;;;;;;;;;;4.80;72.60;;;;;;5074376;28;19913;-31
2023/04/27 03:43:39;;;;;;;;;;;4.90;72.70;;;;;;5074318;28;19939;-31
2023/04/27 03:46:05;;;;;;;;;;;4.80;72.60;;;;;;5074869;28;19919;-28
2023/04/27 03:48:30;;;;;;;;;;;4.80;72.70;;;;;;5074248;28;19912;-31
2023/04/27 03:50:56;;;;;;;;;;;4.80;72.70;;;;;;5073843;28;19916;-30
2023/04/27 03:53:21;;;;;;;;;;;4.80;72.80;;;;;;5074184;28;19963;-30
2023/04/27 03:55:47;;;;;;;;;;;4.80;72.80;;;;;;5074045;28;19913;-32
2023/04/27 03:58:12;;;;;;;;;;;4.80;72.80;;;;;;5074036;28;20219;-30
2023/04/27 04:00:38;;;;;;;;;;;4.70;72.70;;;;;;5073920;28;20283;-29
2023/04/27 04:03:05;;;;;;;;;;;4.70;72.80;;;;;;5073917;28;19920;-35
2023/04/27 04:05:31;;;;;;;;;;;4.70;72.90;;;;;;5073908;28;20334;-31
2023/04/27 04:07:56;;;;;;;;;;;4.70;72.90;;;;;;5073661;28;19913;-27
2023/04/27 04:10:22;;;;;;;;;;;4.70;72.80;;;;;;5073507;28;19912;-28
2023/04/27 04:12:47;;;;;;;;;;;4.70;72.90;;;;;;5073433;28;20257;-27
2023/04/27 04:15:13;;;;;;;;;;;4.70;72.90;;;;;;5073530;28;20392;-28
2023/04/27 04:17:39;;;;;;;;;;;4.70;72.90;;;;;;5073536;28;19962;-28
2023/04/27 04:20:08;;;;;;;;;;;4.70;72.90;;;;;;5073552;28;19992;-30
2023/04/27 04:22:34;;;;;;;;;;;4.70;72.90;;;;;;5073146;28;20486;-30
2023/04/27 04:24:59;;;;;;;;;;;4.70;72.90;;;;;;5073276;28;19924;-28
2023/04/27 04:27:25;;;;;;;;;;;4.70;72.80;;;;;;5073473;28;20395;-30
2023/04/27 04:29:50;;;;;;;;;;;4.80;72.90;;;;;;5071954;28;20016;-28
2023/04/27 04:32:17;;;;;;;;;;;4.80;72.90;;;;;;5073597;28;20011;-29
2023/04/27 04:34:43;;;;;;;;;;;4.80;72.80;;;;;;5073279;28;19913;-31
2023/04/27 04:37:08;;;;;;;;;;;4.80;72.80;;;;;;5073094;28;19912;-30
2023/04/27 04:39:34;;;;;;;;;;;4.90;72.90;;;;;;5073005;28;20407;-29
2023/04/27 04:41:59;;;;;;;;;;;4.90;72.80;;;;;;5072934;28;20019;-27
2023/04/27 04:44:25;;;;;;;;;;;4.90;72.80;;;;;;5072964;28;19920;-28
2023/04/27 04:46:50;;;;;;;;;;;4.90;72.80;;;;;;5072793;28;19959;-36
2023/04/27 04:49:16;;;;;;;;;;;4.90;72.80;;;;;;5072347;28;20348;-28
2023/04/27 04:51:42;;;;;;;;;;;4.90;72.80;;;;;;5071475;28;20326;-28
2023/04/27 04:54:08;;;;;;;;;;;5.00;72.80;;;;;;5073281;28;19935;-28
2023/04/27 04:56:33;;;;;;;;;;;5.00;72.80;;;;;;5073051;28;19912;-28
2023/04/27 04:58:59;;;;;;;;;;;5.00;72.70;;;;;;5072644;28;19912;-29
2023/04/27 05:01:24;;;;;;;;;;;5.00;72.70;;;;;;5072588;28;19913;-30
2023/04/27 05:03:50;;;;;;;;;;;5.00;72.60;;;;;;5072426;28;19917;-28
2023/04/27 05:06:15;;;;;;;;;;;5.10;72.60;;;;;;5072592;28;20229;-31
2023/04/27 05:08:41;;;;;;;;;;;5.10;72.60;;;;;;5072663;28;19948;-27
2023/04/27 05:11:06;;;;;;;;;;;5.10;72.60;;;;;;5072574;28;20442;-29
2023/04/27 05:13:32;;;;;;;;;;;5.20;72.60;;;;;;5072298;28;19920;-28
2023/04/27 05:15:57;;;;;;;;;;;5.20;72.60;;;;;;5072343;28;19963;-28
2023/04/27 05:18:23;;;;;;;;;;;5.20;72.50;;;;;;5072318;28;19912;-29
2023/04/27 05:20:48;;;;;;;;;;;5.30;72.50;;;;;;5072209;28;19916;-29
2023/04/27 05:23:14;;;;;;;;;;;5.30;72.50;;;;;;5072186;28;19920;-28
2023/04/27 05:25:42;;;;;;;;;;;5.40;72.50;;;;;;5072457;28;19942;-31
2023/04/27 05:28:08;;;;;;;;;;;5.40;72.50;;;;;;5072285;28;19943;-29
2023/04/27 05:30:34;;;;;;;;;;;5.40;72.40;;;;;;5072135;28;19995;-30
2023/04/27 05:32:59;;;;;;;;;;;5.50;72.40;;;;;;5072264;28;19924;-27
2023/04/27 05:35:25;;;;;;;;;;;5.50;72.40;;;;;;5071985;28;20337;-35
2023/04/27 05:37:51;;;;;;;;;;;5.60;72.30;;;;;;5072148;28;20339;-31
2023/04/27 05:40:16;;;;;;;;;;;5.60;72.30;;;;;;5071925;28;20187;-31
2023/04/27 05:42:42;;;;;;;;;;;5.70;72.30;;;;;;5072182;28;20151;-30
2023/04/27 05:45:07;;;;;;;;;;;5.70;72.20;;;;;;5071955;28;19917;-36
2023/04/27 05:47:33;;;;;;;;;;;5.70;72.20;;;;;;5071974;28;19912;-28
2023/04/27 05:49:58;;;;;;;;;;;5.80;72.20;;;;;;5072177;28;19919;-32
2023/04/27 05:52:29;;;;;;;;;;;5.80;72.20;;;;;;5071908;28;20177;-29
2023/04/27 05:54:55;;;;;;;;;;;5.90;72.20;;;;;;5072111;28;19951;-30
2023/04/27 05:57:21;;;;;;;;;;;5.90;72.20;;;;;;5072264;28;19912;-28
2023/04/27 05:59:46;;;;;;;;;;;6.00;72.20;;;;;;5071913;28;19916;-28
2023/04/27 06:02:12;;;;;;;;;;;6.00;72.10;;;;;;5072247;28;19999;-31
2023/04/27 06:04:37;;;;;;;;;;;6.10;72.10;;;;;;5072166;28;19943;-29
2023/04/27 06:07:10;;;;;;;;;;;6.10;72.00;;;;;;5071861;28;20003;-29
2023/04/27 06:09:35;;;;;;;;;;;6.20;72.00;;;;;;5071882;28;19920;-28
2023/04/27 06:12:03;;;;;;;;;;;6.20;71.90;;;;;;5071755;28;19913;-30
2023/04/27 06:14:29;;;;;;;;;;;6.20;71.90;;;;;;5071673;28;19913;-27
2023/04/27 06:16:54;;;;;;;;;;;6.30;71.90;;;;;;5071809;28;20295;-28
2023/04/27 06:19:20;;;;;;;;;;;6.30;71.80;;;;;;5071711;28;20295;-36
2023/04/27 06:21:45;;;;;;;;;;;6.40;71.70;;;;;;5071870;28;19920;-36
2023/04/27 06:24:11;;;;;;;;;;;6.50;71.70;;;;;;5071896;28;19921;-30
2023/04/27 06:26:36;;;;;;;;;;;6.50;71.60;;;;;;5071651;28;19925;-37
2023/04/27 06:29:03;;;;;;;;;;;6.60;71.50;;;;;;5071598;28;19916;-39
2023/04/27 06:31:28;;;;;;;;;;;6.60;71.40;;;;;;5071778;28;19919;-30
2023/04/27 06:33:54;;;;;;;;;;;6.70;71.50;;;;;;5075667;28;19912;-31
2023/04/27 06:36:20;;;;;;;;;;;6.80;71.40;;;;;;5075520;28;19966;-29
2023/04/27 06:38:45;;;;;;;;;;;6.80;71.20;;;;;;5075683;28;19920;-34
2023/04/27 06:41:11;;;;;;;;;;;6.90;71.80;;;;;;5075831;28;19999;-31
2023/04/27 06:43:36;;;;;;;;;;;6.90;71.20;;;;;;5075270;28;19913;-30
2023/04/27 06:46:02;;;;;;;;;;;7.00;71.10;;;;;;5075457;28;19916;-31
2023/04/27 06:48:27;;;;;;;;;;;7.10;71.10;;;;;;5075138;28;19920;-32
2023/04/27 06:50:53;;;;;;;;;;;7.10;70.90;;;;;;5075164;28;19971;-30
2023/04/27 06:53:18;;;;;;;;;;;7.20;70.80;;;;;;5074962;28;19999;-31
2023/04/27 06:55:44;;;;;;;;;;;7.20;70.90;;;;;;5074937;28;20345;-37
2023/04/27 06:58:10;;;;;;;;;;;7.30;71.00;;;;;;5075022;28;19916;-31
2023/04/27 07:00:35;;;;;;;;;;;7.30;70.90;;;;;;5074940;28;19912;-29
2023/04/27 07:03:01;;;;;;;;;;;7.40;70.80;;;;;;5074894;28;19919;-31
2023/04/27 07:05:26;;;;;;;;;;;7.50;70.70;;;;;;5074725;28;19916;-31
2023/04/27 07:07:52;;;;;;;;;;;7.50;70.50;;;;;;5074859;28;20434;-32
2023/04/27 07:10:17;;;;;;;;;;;7.60;70.40;;;;;;5074690;28;19912;-30
2023/04/27 07:12:43;;;;;;;;;;;7.70;70.30;;;;;;5074704;28;19912;-31
2023/04/27 07:15:09;;;;;;;;;;;7.70;70.20;;;;;;5074595;28;19959;-30
2023/04/27 07:17:34;;;;;;;;;;;7.80;70.10;;;;;;5074538;28;19918;-31
2023/04/27 07:20:00;;;;;;;;;;;7.80;70.00;;;;;;5074625;28;20331;-31
2023/04/27 07:22:27;;;;;;;;;;;7.90;69.90;;;;;;5073075;28;19974;-28
2023/04/27 07:24:53;;;;;;;;;;;8.00;70.10;;;;;;5074644;28;19916;-33
2023/04/27 07:27:19;;;;;;;;;;;8.00;70.20;;;;;;5074781;28;20478;-31
2023/04/27 07:29:44;;;;;;;;;;;8.10;70.30;;;;;;5074560;28;20554;-29
2023/04/27 07:32:10;;;;;;;;;;;8.10;70.20;;;;;;5073207;28;19924;-30
2023/04/27 07:34:35;;;;;;;;;;;8.20;71.40;;;;;;5074486;28;19913;-30
2023/04/27 07:37:01;;;;;;;;;;;8.20;72.80;;;;;;5074350;28;19934;-32
2023/04/27 07:39:26;;;;;;;;;;;8.30;73.70;;;;;;5074341;28;20417;-30
2023/04/27 07:41:52;;;;;;;;;;;8.30;73.30;;;;;;5073216;28;19943;-33
2023/04/27 07:44:18;;;;;;;;;;;8.40;73.50;;;;;;5073660;28;19917;-30
2023/04/27 07:46:46;;;;;;;;;;;8.40;73.00;;;;;;5074239;28;20295;-30
2023/04/27 07:49:12;;;;;;;;;;;8.50;72.50;;;;;;5074224;28;19919;-30
2023/04/27 07:51:38;;;;;;;;;;;8.50;72.50;;;;;;5074392;28;20363;-30
2023/04/27 07:54:04;;;;;;;;;;;8.60;73.30;;;;;;5074298;28;19912;-28
2023/04/27 07:56:29;;;;;;;;;;;8.70;73.30;;;;;;5074079;28;19917;-35
2023/04/27 07:58:55;;;;;;;;;;;8.70;73.30;;;;;;5074164;28;19958;-37
2023/04/27 08:01:21;;;;;;;;;;;8.80;73.60;;;;;;5073898;28;20007;-30
2023/04/27 08:03:46;;;;;;;;;;;8.80;73.10;;;;;;5073936;28;19919;-29
2023/04/27 08:06:12;;;;;;;;;;;8.90;72.80;;;;;;5073905;28;20269;-28
2023/04/27 08:08:37;;;;;;;;;;;9.00;72.30;;;;;;5073828;28;20000;-29
2023/04/27 08:11:03;;;;;;;;;;;9.10;72.30;;;;;;5074084;28;19912;-28
2023/04/27 08:13:28;;;;;;;;;;;9.20;72.20;;;;;;5073762;28;19920;-29
2023/04/27 08:15:57;;;;;;;;;;;9.30;71.50;;;;;;5074142;28;20292;-29
2023/04/27 08:18:23;;;;;;;;;;;9.40;71.80;;;;;;5073775;28;20015;-29
2023/04/27 08:20:48;;;;;;;;;;;9.40;71.80;;;;;;5073581;28;19948;-29
2023/04/27 08:23:14;;;;;;;;;;;9.60;71.60;;;;;;5073444;28;19930;-29
2023/04/27 08:25:40;;;;;;;;;;;9.60;70.90;;;;;;5073692;28;20018;-31
2023/04/27 08:28:05;;;;;;;;;;;9.70;70.70;;;;;;5073210;28;20015;-30
2023/04/27 08:30:31;;;;;;;;;;;9.80;70.60;;;;;;5073634;28;19957;-28
2023/04/27 08:32:56;;;;;;;;;;;10.00;70.50;;;;;;5073263;28;19958;-30
2023/04/27 08:35:22;;;;;;;;;;;10.10;70.20;;;;;;5073201;28;19912;-30
2023/04/27 08:37:47;;;;;;;;;;;10.10;70.40;;;;;;5073168;28;20288;-29
2023/04/27 08:40:13;;;;;;;;;;;10.30;69.70;;;;;;5073260;28;19959;-29
2023/04/27 08:42:40;;;;;;;;;;;10.30;70.00;;;;;;5073157;28;19919;-28
2023/04/27 08:45:07;;;;;;;;;;;10.40;69.80;;;;;;5072917;28;20379;-30
2023/04/27 08:47:33;;;;;;;;;;;10.40;71.80;;;;;;5072933;28;19913;-35
2023/04/27 08:49:58;;;;;;;;;;;10.50;71.30;;;;;;5072888;28;19919;-31
2023/04/27 08:52:24;;;;;;;;;;;10.50;71.30;;;;;;5072860;28;19912;-32
2023/04/27 08:54:49;;;;;;;;;;;10.60;71.90;;;;;;5071757;28;20003;-30
2023/04/27 08:57:15;;;;;;;;;;;10.60;72.50;;;;;;5072650;28;19913;-31
2023/04/27 08:59:41;;;;;;;;;;;10.70;72.10;;;;;;5072929;28;19919;-29
2023/04/27 09:02:17;;;;;;;;;;;10.80;71.40;;;;;;5072593;28;19973;-32
2023/04/27 09:04:42;;;;;;;;;;;10.80;70.90;;;;;;5072388;28;20011;-31
2023/04/27 09:07:14;;;;;;;;;;;10.90;70.30;;;;;;5072534;28;19966;-28
2023/04/27 09:09:40;;;;;;;;;;;10.90;69.90;;;;;;5072306;28;19966;-30
2023/04/27 09:12:14;;;;;;;;;;;11.00;70.00;;;;;;5072774;28;19939;-30
2023/04/27 09:14:41;;;;;;;;;;;11.10;69.40;;;;;;5072394;28;19962;-28
2023/04/27 09:17:07;;;;;;;;;;;11.20;68.00;;;;;;5072358;28;19912;-31
2023/04/27 09:19:32;;;;;;;;;;;11.20;68.50;;;;;;5072271;28;19913;-29
2023/04/27 09:22:02;;;;;;;;;;;11.30;68.50;;;;;;5072028;28;20473;-36
2023/04/27 09:24:27;;;;;;;;;;;11.40;67.50;;;;;;5072093;28;19966;-28
2023/04/27 09:26:53;;;;;;;;;;;11.40;67.70;;;;;;5072438;28;19916;-29
2023/04/27 09:29:18;;;;;;;;;;;11.40;66.70;;;;;;5072084;28;19916;-31
2023/04/27 09:31:44;;;;;;;;;;;11.50;67.50;;;;;;5072265;28;19913;-35
2023/04/27 09:34:09;;;;;;;;;;;11.60;67.00;;;;;;5072359;28;19931;-31
2023/04/27 09:36:35;;;;;;;;;;;11.60;66.90;;;;;;5071919;28;19950;-30
2023/04/27 09:39:03;;;;;;;;;;;11.70;64.80;;;;;;5071795;28;19999;-30
2023/04/27 09:41:30;;;;;;;;;;;11.80;67.20;;;;;;5071883;28;20440;-29
2023/04/27 09:43:56;;;;;;;;;;;11.80;67.10;;;;;;5072012;28;19913;-32
2023/04/27 09:46:21;;;;;;;;;;;11.80;67.30;;;;;;5072063;28;19919;-35
2023/04/27 09:48:48;;;;;;;;;;;11.90;65.90;;;;;;5071824;28;19909;-29
2023/04/27 09:51:14;;;;;;;;;;;11.90;65.80;;;;;;5072067;28;20227;-29
2023/04/27 09:53:43;;;;;;;;;;;12.00;65.70;;;;;;5071694;28;19999;-29
2023/04/27 09:56:36;;;;;;;;;;;12.10;68.20;;;;;;5071724;28;20265;-29
2023/04/27 09:59:19;;;;;;;;;;;12.20;67.30;;;;;;5071580;28;20287;-29
2023/04/27 10:01:50;;;;;;;;;;;12.20;66.30;;;;;;5071687;28;20001;-29
2023/04/27 10:04:22;;;;;;;;;;;12.30;66.70;;;;;;5071482;28;20386;-31
2023/04/27 10:07:00;;;;;;;;;;;12.40;67.40;;;;;;5071369;28;19909;-33
2023/04/27 10:09:26;;;;;;;;;;;12.40;66.80;;;;;;5071471;28;19915;-30
2023/04/27 10:11:53;;;;;;;;;;;12.40;66.70;;;;;;5071701;28;20306;-32
2023/04/27 10:14:20;;;;;;;;;;;12.50;66.80;;;;;;5071487;28;19909;-33
2023/04/27 10:16:45;;;;;;;;;;;12.60;67.30;;;;;;5071535;28;19913;-29
2023/04/27 10:19:11;;;;;;;;;;;12.70;67.80;;;;;;5071458;28;19913;-37
2023/04/27 10:21:37;;;;;;;;;;;12.80;68.30;;;;;;5071299;28;19908;-31
2023/04/27 10:24:08;;;;;;;;;;;12.90;67.90;;;;;;5071243;28;19921;-30
2023/04/27 10:26:35;;;;;;;;;;;13.00;67.50;;;;;;5071796;28;20364;-31
2023/04/27 10:29:07;;;;;;;;;;;13.10;66.50;;;;;;5071905;28;19913;-32
2023/04/27 10:31:33;;;;;;;;;;;13.10;65.80;;;;;;5071640;28;20325;-34
2023/04/27 10:34:08;;;;;;;;;;;13.10;63.50;;;;;;5070009;28;19940;-32
2023/04/27 10:36:35;;;;;;;;;;;13.20;65.80;;;;;;5071403;28;20364;-30
2023/04/27 10:39:01;;;;;;;;;;;13.20;63.70;;;;;;5071602;28;19916;-33
2023/04/27 10:41:32;;;;;;;;;;;13.20;63.50;;;;;;5071334;28;19909;-33
2023/04/27 10:44:12;;;;;;;;;;;13.20;65.20;;;;;;5071273;28;19953;-32
2023/04/27 10:46:48;;;;;;;;;;;13.30;66.60;;;;;;5071384;28;19908;-34
2023/04/27 10:49:14;;;;;;;;;;;13.40;66.90;;;;;;5071415;28;19908;-30
2023/04/27 10:51:40;;;;;;;;;;;13.40;65.20;;;;;;5071295;28;19920;-35
2023/04/27 10:54:05;;;;;;;;;;;13.40;65.40;;;;;;5071341;28;19909;-30
2023/04/27 10:56:32;;;;;;;;;;;13.40;64.80;;;;;;5071625;28;19908;-32
2023/04/27 10:59:02;;;;;;;;;;;13.40;64.10;;;;;;5071531;28;19915;-40
2023/04/27 11:01:28;;;;;;;;;;;13.40;64.30;;;;;;5069865;28;20265;-38
2023/04/27 11:03:55;;;;;;;;;;;13.50;63.20;;;;;;5071218;28;19909;-37
2023/04/27 11:06:20;;;;;;;;;;;13.60;63.70;;;;;;5071302;28;20354;-30
2023/04/27 11:08:46;;;;;;;;;;;13.60;65.50;;;;;;5071204;28;19909;-34
2023/04/27 11:11:16;;;;;;;;;;;13.70;65.10;;;;;;5071034;28;20386;-31
2023/04/27 11:13:42;;;;;;;;;;;13.70;65.70;;;;;;5071051;28;19908;-31
2023/04/27 11:16:07;;;;;;;;;;;13.80;65.60;;;;;;5071186;28;20364;-30
2023/04/27 11:18:35;;;;;;;;;;;13.80;64.90;;;;;;5072968;28;19915;-28
2023/04/27 11:21:06;;;;;;;;;;;13.90;63.40;;;;;;5075083;28;19912;-34
2023/04/27 11:23:38;;;;;;;;;;;13.90;63.80;;;;;;5074488;28;19920;-32
2023/04/27 11:26:18;;;;;;;;;;;13.90;64.50;;;;;;5074731;28;19920;-30
2023/04/27 11:28:55;;;;;;;;;;;14.00;64.70;;;;;;5074815;28;19920;-34
2023/04/27 11:31:21;;;;;;;;;;;14.10;63.30;;;;;;5074755;28;19909;-34
2023/04/27 11:33:47;;;;;;;;;;;14.10;62.60;;;;;;5074683;28;20239;-33
2023/04/27 11:36:16;;;;;;;;;;;14.10;63.70;;;;;;5074508;28;20249;-32
2023/04/27 11:38:42;;;;;;;;;;;14.10;63.20;;;;;;5074906;28;19908;-34
2023/04/27 11:41:07;;;;;;;;;;;14.20;64.00;;;;;;5074783;28;19915;-30
2023/04/27 11:43:33;;;;;;;;;;;14.20;63.20;;;;;;5074322;28;19947;-32
2023/04/27 11:46:02;;;;;;;;;;;14.20;63.20;;;;;;5074591;28;19913;-30
2023/04/27 11:48:28;;;;;;;;;;;14.30;63.10;;;;;;5074520;28;20287;-30
2023/04/27 11:50:57;;;;;;;;;;;14.30;62.30;;;;;;5074219;28;19916;-32
2023/04/27 11:53:30;;;;;;;;;;;14.40;62.50;;;;;;5074160;28;19909;-34
2023/04/27 11:55:58;;;;;;;;;;;14.40;62.00;;;;;;5074470;28;20587;-34
2023/04/27 11:58:25;;;;;;;;;;;14.50;62.20;;;;;;5074196;28;19908;-34
2023/04/27 12:00:50;;;;;;;;;;;14.60;60.60;;;;;;5074192;28;20003;-34
2023/04/27 12:03:16;;;;;;;;;;;14.60;59.40;;;;;;5074324;28;19984;-35
2023/04/27 12:05:48;;;;;;;;;;;14.60;60.40;;;;;;5074045;28;19920;-31
2023/04/27 12:08:14;;;;;;;;;;;14.60;60.70;;;;;;5074184;28;19982;-32
2023/04/27 12:10:40;;;;;;;;;;;14.50;60.70;;;;;;5073823;28;19970;-31
2023/04/27 12:13:06;;;;;;;;;;;14.60;60.90;;;;;;5072811;28;19908;-31
2023/04/27 12:15:32;;;;;;;;;;;14.60;60.90;;;;;;5074241;28;20363;-31
2023/04/27 12:17:57;;;;;;;;;;;14.70;60.90;;;;;;5074186;28;19909;-34
2023/04/27 12:20:23;;;;;;;;;;;14.70;60.60;;;;;;5073886;28;19937;-33
2023/04/27 12:22:49;;;;;;;;;;;14.70;58.60;;;;;;5073745;28;20396;-32
2023/04/27 12:25:14;;;;;;;;;;;14.80;57.50;;;;;;5073577;28;19951;-33
2023/04/27 12:27:40;;;;;;;;;;;14.80;58.10;;;;;;5073295;28;19912;-32
2023/04/27 12:30:06;;;;;;;;;;;14.80;58.70;;;;;;5073383;28;20066;-36
2023/04/27 12:32:32;;;;;;;;;;;14.90;59.30;;;;;;5073543;28;19995;-35
2023/04/27 12:34:57;;;;;;;;;;;15.10;58.90;;;;;;5073885;28;19948;-31
2023/04/27 12:37:23;;;;;;;;;;;15.10;58.20;;;;;;5073456;28;19909;-30
2023/04/27 12:39:48;;;;;;;;;;;15.20;57.70;;;;;;5071921;28;20360;-30
2023/04/27 12:42:14;;;;;;;;;;;15.20;57.00;;;;;;5073283;28;19908;-30
2023/04/27 12:44:40;;;;;;;;;;;15.30;56.90;;;;;;5073086;28;19969;-31
2023/04/27 12:47:05;;;;;;;;;;;15.30;56.20;;;;;;5073511;28;19909;-32
2023/04/27 12:49:31;;;;;;;;;;;15.50;56.40;;;;;;5073306;28;19908;-32
2023/04/27 12:51:56;;;;;;;;;;;15.60;56.40;;;;;;5073236;28;20318;-33
2023/04/27 12:54:22;;;;;;;;;;;15.60;51.60;;;;;;5072951;28;19960;-34
2023/04/27 12:56:47;;;;;;;;;;;15.70;53.40;;;;;;5073087;28;19920;-32
2023/04/27 12:59:13;;;;;;;;;;;15.70;53.00;;;;;;5071513;28;20212;-30
2023/04/27 13:01:38;;;;;;;;;;;15.70;51.40;;;;;;5072922;28;20418;-32
2023/04/27 13:04:05;;;;;;;;;;;15.70;51.60;;;;;;5072940;28;19999;-31
2023/04/27 13:06:31;;;;;;;;;;;15.80;52.10;;;;;;5073160;28;20146;-31
2023/04/27 13:08:57;;;;;;;;;;;15.80;51.80;;;;;;5072748;28;20273;-33
2023/04/27 13:11:23;;;;;;;;;;;15.80;51.80;;;;;;5072840;28;19915;-30
2023/04/27 13:13:48;;;;;;;;;;;15.90;52.10;;;;;;5072864;28;19909;-36
2023/04/27 13:16:14;;;;;;;;;;;16.00;52.70;;;;;;5072510;28;20303;-34
2023/04/27 13:18:45;;;;;;;;;;;16.10;52.50;;;;;;5072527;28;19916;-31
2023/04/27 13:21:10;;;;;;;;;;;16.20;52.10;;;;;;5072268;28;19932;-33
2023/04/27 13:23:36;;;;;;;;;;;16.30;52.20;;;;;;5072284;28;19920;-33
2023/04/27 13:26:01;;;;;;;;;;;16.40;52.50;;;;;;5072318;28;20001;-32
2023/04/27 13:28:27;;;;;;;;;;;16.50;52.20;;;;;;5072632;28;19915;-33
2023/04/27 13:30:54;;;;;;;;;;;16.60;52.20;;;;;;5071766;28;20352;-34
2023/04/27 13:33:19;;;;;;;;;;;16.70;52.20;;;;;;5072369;28;20616;-39
2023/04/27 13:35:45;;;;;;;;;;;16.80;52.40;;;;;;5072098;28;19919;-34
2023/04/27 13:38:10;;;;;;;;;;;16.90;52.30;;;;;;5070638;28;19919;-33
2023/04/27 13:40:36;;;;;;;;;;;17.00;52.50;;;;;;5071706;28;20352;-30
2023/04/27 13:43:01;;;;;;;;;;;17.10;52.30;;;;;;5071962;28;19909;-34
2023/04/27 13:45:27;;;;;;;;;;;17.10;50.70;;;;;;5071796;28;19965;-33
2023/04/27 13:47:52;;;;;;;;;;;17.10;51.00;;;;;;5071867;28;19948;-30
2023/04/27 13:50:18;;;;;;;;;;;17.10;51.50;;;;;;5071841;28;19920;-35
2023/04/27 13:52:43;;;;;;;;;;;17.10;51.70;;;;;;5071837;28;19959;-31
2023/04/27 13:55:10;;;;;;;;;;;17.10;51.60;;;;;;5071633;28;19915;-34
2023/04/27 13:57:36;;;;;;;;;;;17.00;51.40;;;;;;5071654;28;20329;-30
2023/04/27 14:00:02;;;;;;;;;;;17.00;51.80;;;;;;5071531;28;19983;-33
2023/04/27 14:02:28;;;;;;;;;;;16.90;51.60;;;;;;5071648;28;19915;-31
2023/04/27 14:04:53;;;;;;;;;;;16.90;51.70;;;;;;5071560;28;19913;-32
2023/04/27 14:07:19;;;;;;;;;;;16.90;51.70;;;;;;5071664;28;19909;-30
2023/04/27 14:09:45;;;;;;;;;;;16.90;52.20;;;;;;5071554;28;20360;-31
2023/04/27 14:12:11;;;;;;;;;;;16.90;51.90;;;;;;5071553;28;19909;-32
2023/04/27 14:14:36;;;;;;;;;;;16.90;49.40;;;;;;5071442;28;19908;-30
2023/04/27 14:17:02;;;;;;;;;;;16.90;47.50;;;;;;5071421;28;20007;-33
2023/04/27 14:19:27;;;;;;;;;;;16.80;48.90;;;;;;5071426;28;19909;-34